首页
METAR-TAF:

METAR-TAF

机场 :

Mitiga International Airport

的黎波里, 利比亚

纬度: 32-54N, 经度: 13-17E, 海拔: 11米

当前天气观测

该预报发布于26分钟前的13:50 UTC
风速10节,风向北转西北
温度 25°C
湿度 65%
气压 1015 hPa
能見度: 7000
散云层高于2500英尺

METAR: HLLM 191350Z 34010KT 7000 SCT025 25/18 Q1015

时间: 16:16 (14:16 UTC)

预报

该预报发布于3小时和16分钟前的11:00 UTC
预报有效从19日的 12点(UTC)到 20日的 12点(UTC)
风速10节,风向北转西北
能见度10公里或以上
散云层高于3000英尺
成为
从 20日的 00点(UTC)到 20日的 02点(UTC)
风速2节,风向多变
能見度: 8000
成为
从 20日的 06点(UTC)到 20日的 08点(UTC)
风速10节,风向北转东北

TAF: HLLM 191100Z 1912/2012 33010KT 9999 SCT030 BECMG 2000/2002 VRB02KT 8000 BECMG 2006/2008 03010KT

超过4000个机场的气象观测和天气预报(METAR&TAF报告)。

可查询的气象台以黄色和红色小点在地图上表示。

将鼠标移到小点上方,可查看气象台名称。

然后点击查看天气观测和预报。

如需切换地图:点击带黑十字的绿色按钮放大地图;点击带横线的绿色按钮缩小地图;或者点击绿色箭头查看邻近地区的地图。


METAR-TAF: